LGL712 LEAM-ELLX
Flight info
| Callsign | LGL712 |
|---|---|
| Flight time | 2h 30m |
| Altitude | 32000 |
| Route | ESILA N865 VTB N867 DGO L176 LUSEM DCT LULUT DCT ADABI DCT BOKNO DCT DIBES DCT VIQAQ DCT TSU/N0450F280 UM163 LEQOS DCT CTL DCT MMD |
| Aircraft | B738/M-SDE2E3FGHIRWXY/LB1 |
Departure
| Time | 2026-04-13 17:40 |
|---|---|
| Airport | Almería Airport (LEAM) |
Arrival
| Time | 2026-04-13 20:11 |
|---|---|
| Airport | Luxembourg-Findel International Airport (ELLX) |
| Time | Latitude | Longitude | Altitude | Speed | Heading |
|---|---|---|---|---|---|
| 2026-04-13 17:11 | 36.84634 | -2.37331 | 66 ft | 0 kts | 126° |
| 2026-04-13 17:32 | 36.84630 | -2.37325 | 65 ft | 1 kts | 130° |
| 2026-04-13 17:32 | 36.84620 | -2.37318 | 65 ft | 1 kts | 162° |
| 2026-04-13 17:32 | 36.84606 | -2.37319 | 65 ft | 2 kts | 197° |
| 2026-04-13 17:32 | 36.84592 | -2.37331 | 65 ft | 2 kts | 223° |
| 2026-04-13 17:33 | 36.84576 | -2.37343 | 65 ft | 2 kts | 210° |
| 2026-04-13 17:33 | 36.84559 | -2.37356 | 65 ft | 2 kts | 213° |
| 2026-04-13 17:33 | 36.84542 | -2.37371 | 65 ft | 3 kts | 214° |
| 2026-04-13 17:33 | 36.84507 | -2.37376 | 65 ft | 6 kts | 150° |
| 2026-04-13 17:34 | 36.84518 | -2.37209 | 65 ft | 13 kts | 73° |
| 2026-04-13 17:34 | 36.84548 | -2.37086 | 65 ft | 16 kts | 72° |
| 2026-04-13 17:34 | 36.84585 | -2.36937 | 65 ft | 19 kts | 72° |
| 2026-04-13 17:35 | 36.84627 | -2.36763 | 66 ft | 22 kts | 73° |
| 2026-04-13 17:35 | 36.84677 | -2.36561 | 64 ft | 26 kts | 72° |
| 2026-04-13 17:35 | 36.84732 | -2.36332 | 63 ft | 26 kts | 75° |
| 2026-04-13 17:35 | 36.84778 | -2.36125 | 66 ft | 23 kts | 69° |
| 2026-04-13 17:36 | 36.84829 | -2.35939 | 66 ft | 21 kts | 73° |
| 2026-04-13 17:36 | 36.84871 | -2.35765 | 66 ft | 20 kts | 73° |
| 2026-04-13 17:36 | 36.84911 | -2.35606 | 66 ft | 18 kts | 73° |
| 2026-04-13 17:36 | 36.84943 | -2.35468 | 67 ft | 14 kts | 78° |
| 2026-04-13 17:37 | 36.84921 | -2.35362 | 67 ft | 12 kts | 134° |
| 2026-04-13 17:37 | 36.84905 | -2.35348 | 67 ft | 0 kts | 148° |
| 2026-04-13 17:38 | 36.84900 | -2.35343 | 67 ft | 3 kts | 148° |
| 2026-04-13 17:38 | 36.84861 | -2.35336 | 67 ft | 8 kts | 185° |
| 2026-04-13 17:39 | 36.84803 | -2.35372 | 67 ft | 9 kts | 231° |
| 2026-04-13 17:39 | 36.84786 | -2.35415 | 67 ft | 0 kts | 252° |
| 2026-04-13 17:39 | 36.84776 | -2.35452 | 67 ft | 23 kts | 253° |
| 2026-04-13 17:40 | 36.84654 | -2.35955 | 67 ft | 96 kts | 253° |
| 2026-04-13 17:40 | 36.84391 | -2.37020 | 66 ft | 157 kts | 254° |
| 2026-04-13 17:40 | 36.84010 | -2.38435 | 422 ft | 179 kts | 254° |
| 2026-04-13 17:40 | 36.83610 | -2.39867 | 1222 ft | 177 kts | 258° |
| 2026-04-13 17:41 | 36.83270 | -2.41384 | 1828 ft | 184 kts | 261° |
| 2026-04-13 17:41 | 36.82905 | -2.42927 | 2293 ft | 196 kts | 258° |
| 2026-04-13 17:41 | 36.82469 | -2.44635 | 2764 ft | 213 kts | 258° |
| 2026-04-13 17:41 | 36.82059 | -2.46439 | 3248 ft | 224 kts | 267° |
| 2026-04-13 17:42 | 36.82291 | -2.48361 | 3604 ft | 233 kts | 302° |
| 2026-04-13 17:42 | 36.83318 | -2.49976 | 4090 ft | 245 kts | 315° |
| 2026-04-13 17:42 | 36.84466 | -2.51619 | 4696 ft | 258 kts | 310° |
| 2026-04-13 17:42 | 36.85508 | -2.53384 | 5602 ft | 255 kts | 307° |
| 2026-04-13 17:43 | 36.86499 | -2.55220 | 6352 ft | 257 kts | 306° |
| 2026-04-13 17:43 | 36.87483 | -2.57074 | 7042 ft | 261 kts | 306° |
| 2026-04-13 17:43 | 36.88488 | -2.58961 | 7823 ft | 261 kts | 306° |
| 2026-04-13 17:43 | 36.89494 | -2.60841 | 8552 ft | 262 kts | 307° |
| 2026-04-13 17:44 | 36.90514 | -2.62739 | 9189 ft | 267 kts | 306° |
| 2026-04-13 17:44 | 36.91546 | -2.64660 | 9910 ft | 268 kts | 307° |
| 2026-04-13 17:44 | 36.92580 | -2.66588 | 10482 ft | 275 kts | 307° |
| 2026-04-13 17:44 | 36.93684 | -2.68638 | 10870 ft | 289 kts | 307° |
| 2026-04-13 17:45 | 36.94833 | -2.70780 | 11233 ft | 304 kts | 307° |
| 2026-04-13 17:45 | 36.96029 | -2.73011 | 11598 ft | 318 kts | 307° |
| 2026-04-13 17:45 | 36.97285 | -2.75360 | 11968 ft | 331 kts | 307° |
| 2026-04-13 17:45 | 36.98589 | -2.77799 | 12262 ft | 347 kts | 307° |
| 2026-04-13 17:46 | 36.99957 | -2.80358 | 12555 ft | 362 kts | 307° |
| 2026-04-13 17:46 | 37.01357 | -2.82983 | 13209 ft | 365 kts | 308° |
| 2026-04-13 17:46 | 37.02752 | -2.85605 | 13959 ft | 366 kts | 308° |
| 2026-04-13 17:46 | 37.04171 | -2.88275 | 14633 ft | 371 kts | 308° |
| 2026-04-13 17:47 | 37.05603 | -2.90965 | 15238 ft | 376 kts | 308° |
| 2026-04-13 17:47 | 37.07069 | -2.93719 | 15858 ft | 381 kts | 308° |
| 2026-04-13 17:47 | 37.08539 | -2.96486 | 16507 ft | 385 kts | 308° |
| 2026-04-13 17:47 | 37.10021 | -2.99278 | 17139 ft | 388 kts | 309° |
| 2026-04-13 17:48 | 37.11516 | -3.02098 | 17813 ft | 391 kts | 309° |
| 2026-04-13 17:48 | 37.13023 | -3.04940 | 18356 ft | 397 kts | 308° |
| 2026-04-13 17:48 | 37.14571 | -3.07862 | 19071 ft | 398 kts | 309° |
| 2026-04-13 17:48 | 37.16086 | -3.10727 | 19676 ft | 401 kts | 308° |
| 2026-04-13 17:49 | 37.17649 | -3.13682 | 20232 ft | 406 kts | 308° |
| 2026-04-13 17:49 | 37.19185 | -3.16589 | 20864 ft | 407 kts | 308° |
| 2026-04-13 17:49 | 37.20760 | -3.19571 | 21266 ft | 414 kts | 308° |
| 2026-04-13 17:49 | 37.22343 | -3.22574 | 21934 ft | 414 kts | 308° |
| 2026-04-13 17:50 | 37.23935 | -3.25596 | 22451 ft | 417 kts | 308° |
| 2026-04-13 17:50 | 37.25485 | -3.28674 | 22999 ft | 420 kts | 305° |
| 2026-04-13 17:50 | 37.26918 | -3.31912 | 23495 ft | 425 kts | 303° |
| 2026-04-13 17:50 | 37.28267 | -3.35226 | 24058 ft | 427 kts | 301° |
| 2026-04-13 17:51 | 37.29580 | -3.38569 | 24527 ft | 431 kts | 301° |
| 2026-04-13 17:51 | 37.30901 | -3.41956 | 25010 ft | 434 kts | 301° |
| 2026-04-13 17:51 | 37.32223 | -3.45343 | 25449 ft | 437 kts | 301° |
| 2026-04-13 17:51 | 37.33580 | -3.48741 | 25957 ft | 438 kts | 302° |
| 2026-04-13 17:52 | 37.35104 | -3.52083 | 26350 ft | 437 kts | 308° |
| 2026-04-13 17:52 | 37.36981 | -3.55018 | 27051 ft | 429 kts | 317° |
| 2026-04-13 17:52 | 37.39181 | -3.57447 | 27779 ft | 420 kts | 326° |
| 2026-04-13 17:52 | 37.41650 | -3.59361 | 28358 ft | 416 kts | 334° |
| 2026-04-13 17:53 | 37.43451 | -3.60403 | 28746 ft | 415 kts | 338° |
| 2026-04-13 17:53 | 37.47084 | -3.62040 | 29386 ft | 414 kts | 343° |
| 2026-04-13 17:53 | 37.49889 | -3.62908 | 29914 ft | 413 kts | 350° |
| 2026-04-13 17:53 | 37.52727 | -3.63264 | 30424 ft | 413 kts | 356° |
| 2026-04-13 17:54 | 37.55599 | -3.63321 | 30929 ft | 411 kts | 359° |
| 2026-04-13 17:54 | 37.58437 | -3.63254 | 31429 ft | 409 kts | 360° |
| 2026-04-13 17:54 | 37.61269 | -3.63158 | 31935 ft | 406 kts | 360° |
| 2026-04-13 17:54 | 37.64102 | -3.63065 | 32421 ft | 403 kts | 359° |
| 2026-04-13 17:55 | 37.66885 | -3.62988 | 32799 ft | 402 kts | 359° |
| 2026-04-13 17:55 | 37.69658 | -3.62925 | 33222 ft | 400 kts | 359° |
| 2026-04-13 17:55 | 37.72436 | -3.62874 | 33698 ft | 396 kts | 359° |
| 2026-04-13 17:55 | 37.75186 | -3.62833 | 34148 ft | 393 kts | 359° |
| 2026-04-13 17:56 | 37.77914 | -3.62799 | 34473 ft | 392 kts | 358° |
| 2026-04-13 17:56 | 37.80640 | -3.62770 | 34715 ft | 392 kts | 359° |
| 2026-04-13 17:56 | 37.83375 | -3.62744 | 34959 ft | 392 kts | 359° |
| 2026-04-13 17:56 | 37.86097 | -3.62720 | 35178 ft | 393 kts | 359° |
| 2026-04-13 17:57 | 37.88842 | -3.62697 | 35413 ft | 393 kts | 359° |
| 2026-04-13 17:57 | 37.91565 | -3.62674 | 35583 ft | 394 kts | 358° |
| 2026-04-13 17:57 | 37.94291 | -3.62652 | 35816 ft | 393 kts | 359° |
| 2026-04-13 17:57 | 37.97021 | -3.62630 | 36038 ft | 392 kts | 359° |
| 2026-04-13 17:58 | 37.99759 | -3.62607 | 36071 ft | 395 kts | 358° |
| 2026-04-13 17:58 | 38.05261 | -3.62561 | 36081 ft | 392 kts | 359° |
| 2026-04-13 17:59 | 38.10697 | -3.62515 | 36082 ft | 393 kts | 359° |
| 2026-04-13 17:59 | 38.16180 | -3.62455 | 36078 ft | 393 kts | 360° |
| 2026-04-13 18:00 | 38.21640 | -3.62032 | 36079 ft | 393 kts | 2° |
| 2026-04-13 18:00 | 38.27107 | -3.61429 | 36079 ft | 394 kts | 3° |
| 2026-04-13 18:01 | 38.32585 | -3.60845 | 36076 ft | 394 kts | 2° |
| 2026-04-13 18:01 | 38.38058 | -3.60291 | 36076 ft | 394 kts | 2° |
| 2026-04-13 18:02 | 38.43521 | -3.59752 | 36074 ft | 394 kts | 2° |
| 2026-04-13 18:02 | 38.48975 | -3.59221 | 36074 ft | 395 kts | 2° |
| 2026-04-13 18:03 | 38.54483 | -3.58684 | 36075 ft | 395 kts | 2° |
| 2026-04-13 18:03 | 38.59964 | -3.58149 | 36078 ft | 397 kts | 2° |
| 2026-04-13 18:04 | 38.65449 | -3.57613 | 36078 ft | 395 kts | 2° |
| 2026-04-13 18:04 | 38.70971 | -3.57073 | 36079 ft | 397 kts | 2° |
| 2026-04-13 18:05 | 38.76459 | -3.56536 | 36080 ft | 395 kts | 2° |
| 2026-04-13 18:05 | 38.81929 | -3.56001 | 36084 ft | 396 kts | 2° |
| 2026-04-13 18:06 | 38.87436 | -3.55462 | 36083 ft | 396 kts | 2° |
| 2026-04-13 18:06 | 38.92936 | -3.54921 | 36088 ft | 396 kts | 2° |
| 2026-04-13 18:07 | 38.98409 | -3.54382 | 36083 ft | 396 kts | 2° |
| 2026-04-13 18:07 | 39.03878 | -3.53841 | 36080 ft | 394 kts | 2° |
| 2026-04-13 18:08 | 39.09389 | -3.53294 | 36073 ft | 395 kts | 2° |
| 2026-04-13 18:08 | 39.14836 | -3.52751 | 36072 ft | 394 kts | 2° |
| 2026-04-13 18:09 | 39.20315 | -3.52205 | 36064 ft | 394 kts | 2° |
| 2026-04-13 18:09 | 39.25800 | -3.51656 | 36063 ft | 396 kts | 2° |
| 2026-04-13 18:10 | 39.31258 | -3.51110 | 36060 ft | 396 kts | 2° |
| 2026-04-13 18:10 | 39.36740 | -3.50562 | 36056 ft | 395 kts | 2° |
| 2026-04-13 18:11 | 39.42218 | -3.50014 | 36057 ft | 396 kts | 2° |
| 2026-04-13 18:11 | 39.47710 | -3.49462 | 36059 ft | 396 kts | 2° |
| 2026-04-13 18:12 | 39.53189 | -3.48911 | 36057 ft | 397 kts | 2° |
| 2026-04-13 18:12 | 39.58705 | -3.48355 | 36055 ft | 396 kts | 2° |
| 2026-04-13 18:13 | 39.64203 | -3.47804 | 36056 ft | 397 kts | 2° |
| 2026-04-13 18:13 | 39.69694 | -3.47254 | 36053 ft | 395 kts | 2° |
| 2026-04-13 18:14 | 39.75149 | -3.46707 | 36055 ft | 396 kts | 2° |
| 2026-04-13 18:14 | 39.80653 | -3.46060 | 36054 ft | 397 kts | 5° |
| 2026-04-13 18:15 | 39.86095 | -3.44977 | 36050 ft | 398 kts | 7° |
| 2026-04-13 18:15 | 39.91589 | -3.43796 | 36049 ft | 399 kts | 6° |
| 2026-04-13 18:16 | 39.97078 | -3.42647 | 36052 ft | 399 kts | 6° |
| 2026-04-13 18:16 | 40.02543 | -3.41531 | 36053 ft | 400 kts | 6° |
| 2026-04-13 18:17 | 40.08023 | -3.40421 | 36049 ft | 399 kts | 6° |
| 2026-04-13 18:17 | 40.13543 | -3.39308 | 36051 ft | 400 kts | 6° |
| 2026-04-13 18:18 | 40.19013 | -3.38205 | 36062 ft | 399 kts | 6° |
| 2026-04-13 18:18 | 40.24500 | -3.37094 | 36067 ft | 399 kts | 6° |
| 2026-04-13 18:19 | 40.30000 | -3.35981 | 36070 ft | 400 kts | 6° |
| 2026-04-13 18:19 | 40.35478 | -3.34872 | 36070 ft | 399 kts | 6° |
| 2026-04-13 18:20 | 40.40971 | -3.33758 | 36071 ft | 400 kts | 6° |
| 2026-04-13 18:20 | 40.46476 | -3.32639 | 36072 ft | 400 kts | 6° |
| 2026-04-13 18:21 | 40.51951 | -3.31524 | 36071 ft | 400 kts | 6° |
| 2026-04-13 18:21 | 40.57449 | -3.30403 | 36071 ft | 400 kts | 6° |
| 2026-04-13 18:22 | 40.62971 | -3.29275 | 36072 ft | 400 kts | 6° |
| 2026-04-13 18:22 | 40.68466 | -3.28152 | 36068 ft | 401 kts | 6° |
| 2026-04-13 18:23 | 40.73967 | -3.27024 | 36065 ft | 400 kts | 6° |
| 2026-04-13 18:23 | 40.79453 | -3.25898 | 36064 ft | 401 kts | 6° |
| 2026-04-13 18:24 | 40.84952 | -3.24767 | 36049 ft | 401 kts | 6° |
| 2026-04-13 18:24 | 40.90456 | -3.23581 | 36050 ft | 401 kts | 7° |
| 2026-04-13 18:25 | 40.95957 | -3.22341 | 36040 ft | 402 kts | 6° |
| 2026-04-13 18:25 | 41.01492 | -3.21087 | 36039 ft | 401 kts | 7° |
| 2026-04-13 18:26 | 41.06986 | -3.19848 | 36044 ft | 401 kts | 6° |
| 2026-04-13 18:26 | 41.12485 | -3.18607 | 36038 ft | 403 kts | 6° |
| 2026-04-13 18:27 | 41.17977 | -3.17367 | 36036 ft | 401 kts | 6° |
| 2026-04-13 18:27 | 41.23504 | -3.16120 | 36036 ft | 403 kts | 6° |
| 2026-04-13 18:28 | 41.29032 | -3.14872 | 36029 ft | 402 kts | 6° |
| 2026-04-13 18:28 | 41.34522 | -3.13630 | 36039 ft | 402 kts | 6° |
| 2026-04-13 18:29 | 41.40073 | -3.12372 | 36048 ft | 402 kts | 7° |
| 2026-04-13 18:29 | 41.45585 | -3.11119 | 36054 ft | 402 kts | 6° |
| 2026-04-13 18:30 | 41.51104 | -3.09862 | 36060 ft | 402 kts | 6° |
| 2026-04-13 18:30 | 41.56614 | -3.08613 | 36062 ft | 403 kts | 6° |
| 2026-04-13 18:31 | 41.62116 | -3.07365 | 36065 ft | 402 kts | 6° |
| 2026-04-13 18:31 | 41.67648 | -3.06108 | 36063 ft | 403 kts | 6° |
| 2026-04-13 18:32 | 41.73147 | -3.04855 | 36063 ft | 403 kts | 6° |
| 2026-04-13 18:32 | 41.78706 | -3.03581 | 36067 ft | 403 kts | 6° |
| 2026-04-13 18:33 | 41.84217 | -3.02312 | 36065 ft | 404 kts | 6° |
| 2026-04-13 18:33 | 41.89731 | -3.01039 | 36070 ft | 402 kts | 6° |
| 2026-04-13 18:34 | 41.98029 | -2.99120 | 36061 ft | 404 kts | 6° |
| 2026-04-13 18:34 | 42.03576 | -2.97835 | 36053 ft | 404 kts | 6° |
| 2026-04-13 18:35 | 42.09112 | -2.96550 | 36054 ft | 404 kts | 6° |
| 2026-04-13 18:35 | 42.14621 | -2.95269 | 36054 ft | 403 kts | 7° |
| 2026-04-13 18:36 | 42.20188 | -2.93973 | 36053 ft | 405 kts | 6° |
| 2026-04-13 18:36 | 42.25707 | -2.92685 | 36055 ft | 404 kts | 6° |
| 2026-04-13 18:37 | 42.31269 | -2.91384 | 36066 ft | 404 kts | 6° |
| 2026-04-13 18:37 | 42.36789 | -2.90094 | 36077 ft | 405 kts | 6° |
| 2026-04-13 18:38 | 42.42313 | -2.88587 | 36083 ft | 406 kts | 12° |
| 2026-04-13 18:38 | 42.47474 | -2.85252 | 36095 ft | 419 kts | 29° |
| 2026-04-13 18:39 | 42.52020 | -2.80287 | 36105 ft | 423 kts | 35° |
| 2026-04-13 18:39 | 42.56414 | -2.74950 | 36101 ft | 424 kts | 36° |
| 2026-04-13 18:40 | 42.60791 | -2.69576 | 36099 ft | 425 kts | 36° |
| 2026-04-13 18:40 | 42.65158 | -2.64243 | 36098 ft | 425 kts | 36° |
| 2026-04-13 18:41 | 42.69566 | -2.58883 | 36102 ft | 427 kts | 36° |
| 2026-04-13 18:41 | 42.73990 | -2.53503 | 36097 ft | 426 kts | 36° |
| 2026-04-13 18:42 | 42.78388 | -2.48145 | 36093 ft | 426 kts | 36° |
| 2026-04-13 18:42 | 42.82816 | -2.42743 | 36094 ft | 427 kts | 36° |
| 2026-04-13 18:43 | 42.87219 | -2.37363 | 36093 ft | 427 kts | 36° |
| 2026-04-13 18:43 | 42.91637 | -2.31955 | 36092 ft | 429 kts | 37° |
| 2026-04-13 18:44 | 42.96072 | -2.26515 | 36097 ft | 428 kts | 37° |
| 2026-04-13 18:44 | 43.00469 | -2.21107 | 36111 ft | 428 kts | 37° |
| 2026-04-13 18:45 | 43.04903 | -2.15639 | 36110 ft | 430 kts | 37° |
| 2026-04-13 18:45 | 43.09310 | -2.10190 | 36107 ft | 431 kts | 37° |
| 2026-04-13 18:46 | 43.13753 | -2.04686 | 36110 ft | 431 kts | 37° |
| 2026-04-13 18:46 | 43.18187 | -1.99188 | 36122 ft | 431 kts | 37° |
| 2026-04-13 18:47 | 43.22614 | -1.93688 | 36130 ft | 431 kts | 37° |
| 2026-04-13 18:47 | 43.27049 | -1.88169 | 36130 ft | 429 kts | 37° |
| 2026-04-13 18:48 | 43.31592 | -1.82890 | 36129 ft | 426 kts | 31° |
| 2026-04-13 18:48 | 43.36550 | -1.78571 | 36131 ft | 424 kts | 25° |
| 2026-04-13 18:49 | 43.41622 | -1.74394 | 36133 ft | 424 kts | 27° |
| 2026-04-13 18:49 | 43.46557 | -1.69983 | 36130 ft | 426 kts | 28° |
| 2026-04-13 18:50 | 43.51491 | -1.65492 | 36130 ft | 426 kts | 28° |
| 2026-04-13 18:50 | 43.56443 | -1.60980 | 36124 ft | 426 kts | 28° |
| 2026-04-13 18:51 | 43.61373 | -1.56493 | 36124 ft | 427 kts | 28° |
| 2026-04-13 18:51 | 43.66315 | -1.51992 | 36122 ft | 426 kts | 28° |
| 2026-04-13 18:52 | 43.71281 | -1.47464 | 36120 ft | 427 kts | 28° |
| 2026-04-13 18:52 | 43.76228 | -1.42948 | 36116 ft | 428 kts | 28° |
| 2026-04-13 18:53 | 43.81202 | -1.38396 | 36122 ft | 429 kts | 28° |
| 2026-04-13 18:53 | 43.86177 | -1.33836 | 36115 ft | 432 kts | 29° |
| 2026-04-13 18:54 | 43.91178 | -1.29245 | 36112 ft | 435 kts | 29° |
| 2026-04-13 18:54 | 43.96208 | -1.24614 | 36107 ft | 433 kts | 29° |
| 2026-04-13 18:55 | 44.01228 | -1.19981 | 36110 ft | 434 kts | 29° |
| 2026-04-13 18:55 | 44.06259 | -1.15328 | 36109 ft | 436 kts | 29° |
| 2026-04-13 18:56 | 44.11320 | -1.10640 | 36110 ft | 438 kts | 29° |
| 2026-04-13 18:56 | 44.16408 | -1.05920 | 36111 ft | 441 kts | 29° |
| 2026-04-13 18:57 | 44.21510 | -1.01175 | 36111 ft | 445 kts | 29° |
| 2026-04-13 18:57 | 44.26675 | -0.96360 | 36110 ft | 447 kts | 29° |
| 2026-04-13 18:58 | 44.31821 | -0.91554 | 36109 ft | 448 kts | 29° |
| 2026-04-13 18:58 | 44.34410 | -0.89131 | 36471 ft | 448 kts | 29° |
| 2026-04-13 18:58 | 44.37036 | -0.86687 | 36025 ft | 449 kts | 28° |
| 2026-04-13 18:59 | 44.39691 | -0.84393 | 36338 ft | 449 kts | 25° |
| 2026-04-13 18:59 | 44.42432 | -0.82388 | 36227 ft | 447 kts | 21° |
| 2026-04-13 18:59 | 44.48061 | -0.78814 | 36118 ft | 445 kts | 19° |
| 2026-04-13 19:00 | 44.53728 | -0.75425 | 36154 ft | 441 kts | 19° |
| 2026-04-13 19:00 | 44.59404 | -0.72022 | 36103 ft | 442 kts | 19° |
| 2026-04-13 19:01 | 44.65036 | -0.68606 | 36096 ft | 441 kts | 19° |
| 2026-04-13 19:01 | 44.70633 | -0.65184 | 36102 ft | 442 kts | 19° |
| 2026-04-13 19:02 | 44.76284 | -0.61712 | 36103 ft | 443 kts | 19° |
| 2026-04-13 19:02 | 44.81932 | -0.58230 | 36102 ft | 444 kts | 19° |
| 2026-04-13 19:03 | 44.87590 | -0.54733 | 36102 ft | 445 kts | 19° |
| 2026-04-13 19:03 | 44.93261 | -0.51221 | 36103 ft | 445 kts | 19° |
| 2026-04-13 19:04 | 44.98898 | -0.47722 | 36102 ft | 444 kts | 19° |
| 2026-04-13 19:04 | 45.04547 | -0.44205 | 36100 ft | 445 kts | 19° |
| 2026-04-13 19:05 | 45.10186 | -0.40689 | 36094 ft | 445 kts | 19° |
| 2026-04-13 19:05 | 45.15871 | -0.37137 | 36093 ft | 445 kts | 19° |
| 2026-04-13 19:06 | 45.21511 | -0.33605 | 36086 ft | 447 kts | 20° |
| 2026-04-13 19:06 | 45.27208 | -0.30030 | 36087 ft | 448 kts | 20° |
| 2026-04-13 19:07 | 45.32916 | -0.26439 | 36085 ft | 448 kts | 20° |
| 2026-04-13 19:07 | 45.38609 | -0.22850 | 36088 ft | 448 kts | 20° |
| 2026-04-13 19:08 | 45.44281 | -0.19265 | 36085 ft | 448 kts | 20° |
| 2026-04-13 19:08 | 45.49965 | -0.15665 | 36084 ft | 447 kts | 20° |
| 2026-04-13 19:09 | 45.55628 | -0.12071 | 36082 ft | 447 kts | 20° |
| 2026-04-13 19:09 | 45.61288 | -0.08471 | 36084 ft | 446 kts | 20° |
| 2026-04-13 19:10 | 45.66969 | -0.04849 | 36085 ft | 446 kts | 20° |
| 2026-04-13 19:10 | 45.72601 | -0.01253 | 36084 ft | 447 kts | 20° |
| 2026-04-13 19:11 | 45.78292 | 0.02390 | 36084 ft | 448 kts | 20° |
| 2026-04-13 19:11 | 45.83960 | 0.06028 | 36076 ft | 448 kts | 20° |
| 2026-04-13 19:12 | 45.89665 | 0.09697 | 36081 ft | 449 kts | 20° |
| 2026-04-13 19:12 | 45.95350 | 0.13359 | 36081 ft | 450 kts | 20° |
| 2026-04-13 19:13 | 46.01059 | 0.17048 | 36077 ft | 450 kts | 20° |
| 2026-04-13 19:13 | 46.06752 | 0.20735 | 36075 ft | 450 kts | 20° |
| 2026-04-13 19:14 | 46.12449 | 0.24435 | 36077 ft | 450 kts | 20° |
| 2026-04-13 19:14 | 46.18182 | 0.28164 | 36073 ft | 450 kts | 20° |
| 2026-04-13 19:15 | 46.23873 | 0.31874 | 36071 ft | 449 kts | 20° |
| 2026-04-13 19:15 | 46.29567 | 0.35593 | 36064 ft | 450 kts | 20° |
| 2026-04-13 19:16 | 46.35228 | 0.39299 | 36061 ft | 449 kts | 20° |
| 2026-04-13 19:16 | 46.40943 | 0.43051 | 36065 ft | 449 kts | 20° |
| 2026-04-13 19:17 | 46.46620 | 0.46785 | 36059 ft | 449 kts | 20° |
| 2026-04-13 19:17 | 46.52307 | 0.50528 | 36058 ft | 450 kts | 20° |
| 2026-04-13 19:18 | 46.58119 | 0.53724 | 36063 ft | 446 kts | 12° |
| 2026-04-13 19:18 | 46.64134 | 0.55916 | 36054 ft | 444 kts | 9° |
| 2026-04-13 19:19 | 46.70143 | 0.57820 | 36054 ft | 444 kts | 8° |
| 2026-04-13 19:19 | 46.76179 | 0.59736 | 36053 ft | 445 kts | 9° |
| 2026-04-13 19:20 | 46.82200 | 0.61689 | 36049 ft | 442 kts | 9° |
| 2026-04-13 19:20 | 46.88128 | 0.63644 | 36044 ft | 425 kts | 9° |
| 2026-04-13 19:21 | 46.93880 | 0.65549 | 36041 ft | 429 kts | 9° |
| 2026-04-13 19:21 | 46.99710 | 0.67497 | 36042 ft | 427 kts | 11° |
| 2026-04-13 19:22 | 47.05349 | 0.70167 | 36043 ft | 432 kts | 20° |
| 2026-04-13 19:22 | 47.10719 | 0.74279 | 36040 ft | 437 kts | 26° |
| 2026-04-13 19:23 | 47.15913 | 0.78911 | 36040 ft | 440 kts | 27° |
| 2026-04-13 19:23 | 47.21157 | 0.83682 | 36041 ft | 442 kts | 28° |
| 2026-04-13 19:24 | 47.26384 | 0.88423 | 36039 ft | 444 kts | 27° |
| 2026-04-13 19:24 | 47.31667 | 0.93191 | 36041 ft | 449 kts | 27° |
| 2026-04-13 19:25 | 47.36998 | 0.97994 | 36042 ft | 454 kts | 27° |
| 2026-04-13 19:25 | 47.42305 | 1.02783 | 36038 ft | 457 kts | 27° |
| 2026-04-13 19:26 | 47.47765 | 1.07719 | 36040 ft | 459 kts | 27° |
| 2026-04-13 19:26 | 47.53205 | 1.12557 | 36041 ft | 459 kts | 25° |
| 2026-04-13 19:27 | 47.58825 | 1.17013 | 36041 ft | 458 kts | 24° |
| 2026-04-13 19:27 | 47.64497 | 1.21334 | 36039 ft | 459 kts | 23° |
| 2026-04-13 19:28 | 47.70161 | 1.25686 | 36037 ft | 460 kts | 24° |
| 2026-04-13 19:28 | 47.75794 | 1.30067 | 36034 ft | 461 kts | 24° |
| 2026-04-13 19:29 | 47.81476 | 1.34526 | 36033 ft | 461 kts | 24° |
| 2026-04-13 19:29 | 47.87141 | 1.38997 | 36033 ft | 462 kts | 24° |
| 2026-04-13 19:30 | 47.92786 | 1.43467 | 36031 ft | 462 kts | 24° |
| 2026-04-13 19:30 | 47.98492 | 1.47999 | 36032 ft | 463 kts | 24° |
| 2026-04-13 19:31 | 48.04140 | 1.52497 | 36028 ft | 463 kts | 24° |
| 2026-04-13 19:31 | 48.09814 | 1.57023 | 36031 ft | 464 kts | 24° |
| 2026-04-13 19:32 | 48.15525 | 1.61591 | 36028 ft | 464 kts | 24° |
| 2026-04-13 19:32 | 48.21182 | 1.66130 | 36028 ft | 465 kts | 25° |
| 2026-04-13 19:33 | 48.26894 | 1.70725 | 36026 ft | 465 kts | 25° |
| 2026-04-13 19:34 | 48.35406 | 1.77593 | 36019 ft | 466 kts | 25° |
| 2026-04-13 19:34 | 48.41139 | 1.82235 | 36020 ft | 467 kts | 25° |
| 2026-04-13 19:35 | 48.46819 | 1.86845 | 36022 ft | 467 kts | 25° |
| 2026-04-13 19:35 | 48.52564 | 1.91521 | 36021 ft | 468 kts | 25° |
| 2026-04-13 19:36 | 48.58267 | 1.96171 | 36023 ft | 468 kts | 25° |
| 2026-04-13 19:36 | 48.64002 | 2.00861 | 36027 ft | 469 kts | 25° |
| 2026-04-13 19:37 | 48.69712 | 2.05593 | 36025 ft | 470 kts | 28° |
| 2026-04-13 19:37 | 48.74762 | 2.11819 | 36024 ft | 478 kts | 47° |
| 2026-04-13 19:37 | 48.76683 | 2.16026 | 36030 ft | 483 kts | 58° |
| 2026-04-13 19:38 | 48.78198 | 2.20549 | 36029 ft | 486 kts | 62° |
| 2026-04-13 19:38 | 48.80840 | 2.29927 | 36025 ft | 488 kts | 65° |
| 2026-04-13 19:39 | 48.83338 | 2.39520 | 36029 ft | 490 kts | 66° |
| 2026-04-13 19:39 | 48.85814 | 2.49109 | 36030 ft | 491 kts | 66° |
| 2026-04-13 19:40 | 48.88311 | 2.58719 | 36036 ft | 491 kts | 66° |
| 2026-04-13 19:40 | 48.90820 | 2.68339 | 36028 ft | 491 kts | 66° |
| 2026-04-13 19:41 | 48.93346 | 2.78019 | 36030 ft | 492 kts | 67° |
| 2026-04-13 19:41 | 48.95840 | 2.87596 | 36024 ft | 492 kts | 67° |
| 2026-04-13 19:42 | 48.99610 | 3.02148 | 36025 ft | 492 kts | 67° |
| 2026-04-13 19:42 | 49.02101 | 3.11816 | 36029 ft | 493 kts | 67° |
| 2026-04-13 19:43 | 49.04589 | 3.21514 | 36023 ft | 494 kts | 67° |
| 2026-04-13 19:43 | 49.07077 | 3.31256 | 36024 ft | 495 kts | 68° |
| 2026-04-13 19:44 | 49.09559 | 3.41012 | 36021 ft | 496 kts | 68° |
| 2026-04-13 19:44 | 49.12048 | 3.50839 | 36023 ft | 496 kts | 68° |
| 2026-04-13 19:45 | 49.14394 | 3.60723 | 36020 ft | 497 kts | 72° |
| 2026-04-13 19:45 | 49.16228 | 3.70803 | 36047 ft | 496 kts | 76° |
| 2026-04-13 19:46 | 49.17074 | 3.75962 | 35861 ft | 494 kts | 76° |
| 2026-04-13 19:46 | 49.17885 | 3.80988 | 35997 ft | 493 kts | 76° |
| 2026-04-13 19:46 | 49.19532 | 3.91195 | 36024 ft | 495 kts | 76° |
| 2026-04-13 19:47 | 49.21198 | 4.01387 | 36023 ft | 496 kts | 76° |
| 2026-04-13 19:47 | 49.22871 | 4.11536 | 36039 ft | 497 kts | 76° |
| 2026-04-13 19:48 | 49.24566 | 4.21794 | 36030 ft | 498 kts | 77° |
| 2026-04-13 19:48 | 49.26252 | 4.32036 | 36299 ft | 499 kts | 77° |
| 2026-04-13 19:49 | 49.27097 | 4.37188 | 36119 ft | 501 kts | 77° |
| 2026-04-13 19:49 | 49.27932 | 4.42290 | 36010 ft | 490 kts | 77° |
| 2026-04-13 19:49 | 49.28744 | 4.47263 | 35846 ft | 478 kts | 77° |
| 2026-04-13 19:49 | 49.29537 | 4.52127 | 35662 ft | 469 kts | 77° |
| 2026-04-13 19:50 | 49.30323 | 4.56969 | 35177 ft | 468 kts | 78° |
| 2026-04-13 19:50 | 49.31103 | 4.61799 | 34550 ft | 472 kts | 78° |
| 2026-04-13 19:50 | 49.31890 | 4.66692 | 33833 ft | 474 kts | 80° |
| 2026-04-13 19:50 | 49.32671 | 4.71568 | 33039 ft | 477 kts | 80° |
| 2026-04-13 19:51 | 49.33464 | 4.76530 | 32240 ft | 480 kts | 80° |
| 2026-04-13 19:51 | 49.34250 | 4.81462 | 31516 ft | 479 kts | 80° |
| 2026-04-13 19:51 | 49.35031 | 4.86366 | 30818 ft | 478 kts | 81° |
| 2026-04-13 19:51 | 49.35820 | 4.91339 | 29987 ft | 479 kts | 81° |
| 2026-04-13 19:52 | 49.36599 | 4.96266 | 29103 ft | 480 kts | 81° |
| 2026-04-13 19:52 | 49.37422 | 5.01213 | 28290 ft | 481 kts | 78° |
| 2026-04-13 19:52 | 49.38517 | 5.06058 | 27442 ft | 484 kts | 72° |
| 2026-04-13 19:52 | 49.39850 | 5.10800 | 26576 ft | 486 kts | 69° |
| 2026-04-13 19:53 | 49.41299 | 5.15444 | 25646 ft | 489 kts | 68° |
| 2026-04-13 19:53 | 49.42828 | 5.20151 | 24471 ft | 496 kts | 67° |
| 2026-04-13 19:53 | 49.44385 | 5.24893 | 23602 ft | 494 kts | 66° |
| 2026-04-13 19:53 | 49.45900 | 5.29536 | 23001 ft | 487 kts | 67° |
| 2026-04-13 19:54 | 49.47396 | 5.34181 | 22375 ft | 481 kts | 67° |
| 2026-04-13 19:54 | 49.48838 | 5.38726 | 21771 ft | 475 kts | 67° |
| 2026-04-13 19:54 | 49.50263 | 5.43279 | 21096 ft | 470 kts | 68° |
| 2026-04-13 19:54 | 49.51657 | 5.47785 | 20451 ft | 465 kts | 68° |
| 2026-04-13 19:55 | 49.53027 | 5.52254 | 19800 ft | 460 kts | 68° |
| 2026-04-13 19:55 | 49.54372 | 5.56668 | 19177 ft | 455 kts | 68° |
| 2026-04-13 19:55 | 49.55690 | 5.61009 | 18523 ft | 451 kts | 68° |
| 2026-04-13 19:55 | 49.56999 | 5.65337 | 17913 ft | 445 kts | 68° |
| 2026-04-13 19:56 | 49.58292 | 5.69622 | 17304 ft | 440 kts | 68° |
| 2026-04-13 19:56 | 49.59565 | 5.73851 | 16845 ft | 431 kts | 68° |
| 2026-04-13 19:56 | 49.60811 | 5.77992 | 16593 ft | 417 kts | 68° |
| 2026-04-13 19:56 | 49.61997 | 5.81933 | 16405 ft | 402 kts | 68° |
| 2026-04-13 19:57 | 49.63159 | 5.85803 | 16237 ft | 388 kts | 69° |
| 2026-04-13 19:57 | 49.64269 | 5.89513 | 16101 ft | 373 kts | 69° |
| 2026-04-13 19:57 | 49.65325 | 5.93054 | 15821 ft | 358 kts | 69° |
| 2026-04-13 19:57 | 49.66339 | 5.96465 | 15598 ft | 343 kts | 69° |
| 2026-04-13 19:58 | 49.67308 | 5.99727 | 15419 ft | 327 kts | 69° |
| 2026-04-13 19:58 | 49.68232 | 6.02846 | 15194 ft | 315 kts | 69° |
| 2026-04-13 19:58 | 49.69139 | 6.05918 | 14739 ft | 312 kts | 69° |
| 2026-04-13 19:58 | 49.70028 | 6.08936 | 14260 ft | 310 kts | 69° |
| 2026-04-13 19:59 | 49.70914 | 6.11936 | 13787 ft | 308 kts | 69° |
| 2026-04-13 19:59 | 49.71792 | 6.14905 | 13339 ft | 304 kts | 69° |
| 2026-04-13 19:59 | 49.72666 | 6.17864 | 12883 ft | 302 kts | 68° |
| 2026-04-13 19:59 | 49.73533 | 6.20801 | 12423 ft | 299 kts | 68° |
| 2026-04-13 20:00 | 49.74382 | 6.23680 | 11966 ft | 297 kts | 68° |
| 2026-04-13 20:00 | 49.75239 | 6.26577 | 11500 ft | 294 kts | 67° |
| 2026-04-13 20:00 | 49.76083 | 6.29432 | 11043 ft | 292 kts | 67° |
| 2026-04-13 20:00 | 49.76921 | 6.32279 | 10572 ft | 290 kts | 67° |
| 2026-04-13 20:01 | 49.77730 | 6.35108 | 10119 ft | 288 kts | 67° |
| 2026-04-13 20:01 | 49.78521 | 6.37965 | 9544 ft | 290 kts | 67° |
| 2026-04-13 20:01 | 49.79297 | 6.40824 | 8966 ft | 291 kts | 67° |
| 2026-04-13 20:01 | 49.80066 | 6.43719 | 8385 ft | 292 kts | 67° |
| 2026-04-13 20:02 | 49.80825 | 6.46645 | 7799 ft | 293 kts | 67° |
| 2026-04-13 20:02 | 49.81565 | 6.49572 | 7216 ft | 293 kts | 67° |
| 2026-04-13 20:02 | 49.82288 | 6.52506 | 6626 ft | 293 kts | 67° |
| 2026-04-13 20:02 | 49.82982 | 6.55430 | 6052 ft | 293 kts | 70° |
| 2026-04-13 20:03 | 49.83212 | 6.58559 | 5466 ft | 295 kts | 97° |
| 2026-04-13 20:03 | 49.82469 | 6.61430 | 5016 ft | 291 kts | 124° |
| 2026-04-13 20:03 | 49.81060 | 6.63580 | 4753 ft | 279 kts | 144° |
| 2026-04-13 20:03 | 49.79406 | 6.65055 | 4505 ft | 268 kts | 156° |
| 2026-04-13 20:04 | 49.77627 | 6.65736 | 4242 ft | 259 kts | 181° |
| 2026-04-13 20:04 | 49.75946 | 6.65106 | 3985 ft | 248 kts | 211° |
| 2026-04-13 20:04 | 49.74740 | 6.63329 | 3729 ft | 236 kts | 243° |
| 2026-04-13 20:04 | 49.74328 | 6.60978 | 3481 ft | 225 kts | 272° |
| 2026-04-13 20:05 | 49.74411 | 6.58605 | 3232 ft | 218 kts | 277° |
| 2026-04-13 20:05 | 49.74524 | 6.56284 | 2968 ft | 214 kts | 276° |
| 2026-04-13 20:05 | 49.74437 | 6.54005 | 2735 ft | 211 kts | 261° |
| 2026-04-13 20:05 | 49.73935 | 6.51908 | 2544 ft | 206 kts | 247° |
| 2026-04-13 20:06 | 49.73267 | 6.49983 | 2321 ft | 201 kts | 244° |
| 2026-04-13 20:06 | 49.72551 | 6.48156 | 2093 ft | 204 kts | 240° |
| 2026-04-13 20:06 | 49.71852 | 6.46229 | 2012 ft | 198 kts | 246° |
| 2026-04-13 20:06 | 49.71256 | 6.44362 | 2458 ft | 197 kts | 246° |
| 2026-04-13 20:07 | 49.70565 | 6.42480 | 2976 ft | 203 kts | 242° |
| 2026-04-13 20:07 | 49.69851 | 6.40727 | 3126 ft | 183 kts | 242° |
| 2026-04-13 20:07 | 49.69224 | 6.39098 | 2909 ft | 169 kts | 244° |
| 2026-04-13 20:07 | 49.68726 | 6.37626 | 2938 ft | 144 kts | 248° |
| 2026-04-13 20:08 | 49.68251 | 6.36214 | 2987 ft | 148 kts | 247° |
| 2026-04-13 20:08 | 49.67756 | 6.34856 | 3017 ft | 145 kts | 244° |
| 2026-04-13 20:08 | 49.67224 | 6.33457 | 2763 ft | 151 kts | 245° |
| 2026-04-13 20:08 | 49.66735 | 6.32083 | 2470 ft | 144 kts | 243° |
| 2026-04-13 20:09 | 49.66209 | 6.30755 | 2405 ft | 141 kts | 240° |
| 2026-04-13 20:09 | 49.65694 | 6.29404 | 2220 ft | 148 kts | 244° |
| 2026-04-13 20:09 | 49.65203 | 6.28029 | 1959 ft | 147 kts | 244° |
| 2026-04-13 20:09 | 49.64717 | 6.26712 | 1723 ft | 138 kts | 242° |
| 2026-04-13 20:10 | 49.64249 | 6.25455 | 1550 ft | 134 kts | 240° |
| 2026-04-13 20:10 | 49.63770 | 6.24199 | 1378 ft | 139 kts | 242° |
| 2026-04-13 20:10 | 49.63291 | 6.22900 | 1210 ft | 136 kts | 241° |
| 2026-04-13 20:10 | 49.62900 | 6.21829 | 1217 ft | 98 kts | 240° |
| 2026-04-13 20:11 | 49.62666 | 6.21138 | 1229 ft | 40 kts | 254° |
| 2026-04-13 20:11 | 49.62651 | 6.20843 | 1235 ft | 14 kts | 278° |
| 2026-04-13 20:11 | 49.62688 | 6.20756 | 1236 ft | 5 kts | 327° |
| 2026-04-13 20:11 | 49.62701 | 6.20745 | 1236 ft | 1 kts | 337° |
| 2026-04-13 20:12 | 49.62742 | 6.20744 | 1237 ft | 7 kts | 14° |
| 2026-04-13 20:12 | 49.62787 | 6.20773 | 1238 ft | 6 kts | 30° |
| 2026-04-13 20:12 | 49.62814 | 6.20807 | 1238 ft | 4 kts | 49° |
| 2026-04-13 20:12 | 49.62840 | 6.20882 | 1239 ft | 13 kts | 64° |
| 2026-04-13 20:13 | 49.62891 | 6.21047 | 1238 ft | 19 kts | 64° |
| 2026-04-13 20:13 | 49.62946 | 6.21237 | 1236 ft | 19 kts | 66° |
| 2026-04-13 20:13 | 49.63003 | 6.21415 | 1234 ft | 14 kts | 61° |
| 2026-04-13 20:13 | 49.63053 | 6.21562 | 1231 ft | 13 kts | 62° |
| 2026-04-13 20:14 | 49.63110 | 6.21629 | 1231 ft | 10 kts | 348° |
| 2026-04-13 20:14 | 49.63158 | 6.21593 | 1235 ft | 4 kts | 330° |
| 2026-04-13 20:14 | 49.63174 | 6.21579 | 1235 ft | 2 kts | 329° |
| 2026-04-13 20:14 | 49.63200 | 6.21555 | 1236 ft | 0 kts | 329° |
| 2026-04-13 20:15 | 49.63226 | 6.21532 | 1237 ft | 7 kts | 330° |
| 2026-04-13 20:15 | 49.63270 | 6.21593 | 1236 ft | 14 kts | 81° |
| 2026-04-13 20:15 | 49.63296 | 6.21705 | 1236 ft | 7 kts | 35° |
| 2026-04-13 20:15 | 49.63325 | 6.21709 | 1238 ft | 1 kts | 336° |
| 2026-04-13 20:16 | 49.63329 | 6.21707 | 1238 ft | 0 kts | 331° |
| 2026-04-13 20:16 | 49.63345 | 6.21693 | 1239 ft | 2 kts | 331° |
| 2026-04-13 20:16 | 49.63351 | 6.21688 | 1239 ft | 0 kts | 329° |